createdAt,value
2018-03-07T00:01:43.493Z,45.57
2018-03-07T00:04:09.713Z,54.90
2018-03-07T00:06:35.821Z,42.77
2018-03-07T00:09:01.995Z,50.97
2018-03-07T00:11:28.136Z,49.07
2018-03-07T00:13:54.345Z,60.90
2018-03-07T00:16:20.595Z,55.30
2018-03-07T00:18:46.989Z,64.70
2018-03-07T00:21:13.114Z,48.57
2018-03-07T00:23:39.313Z,64.90
2018-03-07T00:26:05.440Z,54.50
2018-03-07T00:28:31.616Z,53.80
2018-03-07T00:30:57.730Z,46.00
2018-03-07T00:33:23.926Z,55.97
2018-03-07T00:35:50.871Z,48.37
2018-03-07T00:38:17.063Z,58.43
2018-03-07T00:40:43.229Z,47.47
2018-03-07T00:43:09.426Z,45.90
2018-03-07T00:45:36.380Z,74.03
2018-03-07T00:48:02.547Z,49.87
2018-03-07T00:50:28.692Z,47.57
2018-03-07T00:52:54.935Z,57.03
2018-03-07T00:55:21.898Z,48.90
2018-03-07T00:57:48.057Z,55.90
2018-03-07T01:00:14.260Z,44.17
2018-03-07T01:02:40.553Z,48.97
2018-03-07T01:05:06.698Z,45.33
2018-03-07T01:07:32.903Z,47.77
2018-03-07T01:09:59.117Z,46.03
2018-03-07T01:12:25.353Z,54.43
2018-03-07T01:14:51.532Z,46.60
2018-03-07T01:17:17.813Z,44.57
2018-03-07T01:19:44.111Z,57.30
2018-03-07T01:22:10.383Z,57.50
2018-03-07T01:24:36.516Z,46.57
2018-03-07T01:27:02.668Z,46.10
2018-03-07T01:29:28.845Z,53.23
2018-03-07T01:31:54.986Z,48.97
2018-03-07T01:34:21.164Z,47.37
2018-03-07T01:36:47.324Z,45.90
2018-03-07T01:39:13.509Z,53.00
2018-03-07T01:41:39.638Z,48.93
2018-03-07T01:44:05.753Z,46.80
2018-03-07T01:46:32.636Z,54.53
2018-03-07T01:48:58.746Z,48.57
2018-03-07T01:51:37.200Z,45.73
2018-03-07T01:54:03.388Z,56.57
2018-03-07T01:56:29.774Z,53.50
2018-03-07T01:58:56.106Z,61.63
2018-03-07T02:01:22.308Z,52.83
2018-03-07T02:03:48.487Z,54.40
2018-03-07T02:06:15.386Z,56.57
2018-03-07T02:08:41.539Z,60.47
2018-03-07T02:11:07.701Z,57.40
2018-03-07T02:13:33.883Z,54.43
2018-03-07T02:16:00.779Z,53.13
2018-03-07T02:18:26.948Z,61.73
2018-03-07T02:20:53.855Z,73.40
2018-03-07T02:23:20.012Z,58.43
2018-03-07T02:25:46.212Z,60.33
2018-03-07T02:28:13.149Z,68.17
2018-03-07T02:30:39.325Z,65.07
2018-03-07T02:33:05.527Z,53.90
2018-03-07T02:35:31.728Z,55.40
2018-03-07T02:37:57.865Z,62.20
2018-03-07T02:40:24.027Z,66.90
2018-03-07T02:42:50.235Z,66.00
2018-03-07T02:45:16.414Z,62.37
2018-03-07T02:47:42.517Z,58.03
2018-03-07T02:50:08.789Z,58.80
2018-03-07T02:52:34.960Z,57.03
2018-03-07T02:55:01.924Z,64.67
2018-03-07T02:57:28.184Z,63.87
2018-03-07T02:59:54.363Z,69.87
2018-03-07T03:02:20.544Z,68.07
2018-03-07T03:04:46.723Z,72.87
2018-03-07T03:07:12.949Z,78.53
2018-03-07T03:09:39.128Z,69.90
2018-03-07T03:12:05.365Z,71.87
2018-03-07T03:14:31.565Z,66.93
2018-03-07T03:16:57.724Z,76.00
2018-03-07T03:19:23.964Z,78.53
2018-03-07T03:21:50.133Z,79.37
2018-03-07T03:24:16.303Z,80.03
2018-03-07T03:26:43.358Z,74.37
2018-03-07T03:29:09.509Z,78.13
2018-03-07T03:31:36.431Z,68.30
2018-03-07T03:34:02.610Z,65.50
2018-03-07T03:36:30.046Z,70.43
2018-03-07T03:41:30.370Z,61.70
2018-03-07T03:43:56.561Z,61.57
2018-03-07T03:46:22.705Z,58.07
2018-03-07T03:48:48.925Z,68.00
2018-03-07T03:51:15.080Z,62.27
2018-03-07T03:53:41.239Z,62.07
2018-03-07T03:56:07.416Z,53.43
2018-03-07T03:58:33.539Z,57.77
2018-03-07T04:00:59.749Z,61.33
2018-03-07T04:03:26.663Z,61.43
2018-03-07T04:05:52.833Z,52.17
2018-03-07T04:08:18.958Z,65.90
2018-03-07T04:10:45.100Z,55.07
2018-03-07T04:13:11.306Z,53.70
2018-03-07T04:15:37.438Z,57.97
2018-03-07T04:18:03.653Z,66.57
2018-03-07T04:20:29.836Z,51.60
2018-03-07T04:22:56.052Z,53.23
2018-03-07T04:25:22.267Z,55.50
2018-03-07T04:27:48.401Z,48.77
2018-03-07T04:30:14.836Z,56.93
2018-03-07T04:32:41.018Z,54.57
2018-03-07T04:35:07.181Z,56.60
2018-03-07T04:37:33.379Z,69.30
2018-03-07T04:39:59.573Z,54.90
2018-03-07T04:42:25.756Z,58.00
2018-03-07T04:44:52.665Z,55.80
2018-03-07T04:47:18.884Z,56.93
2018-03-07T04:49:45.135Z,56.30
2018-03-07T04:52:11.299Z,69.63
2018-03-07T04:54:37.512Z,58.50
2018-03-07T04:57:03.675Z,56.70
2018-03-07T04:59:29.866Z,60.50
2018-03-07T05:01:56.764Z,58.27
2018-03-07T05:04:22.923Z,54.37
2018-03-07T05:06:49.149Z,65.93
2018-03-07T05:09:15.308Z,70.33
2018-03-07T05:11:41.502Z,71.20
2018-03-07T05:14:07.693Z,68.37
2018-03-07T05:16:33.867Z,67.57
2018-03-07T05:19:00.849Z,74.83
2018-03-07T05:21:27.031Z,76.70
2018-03-07T05:23:53.334Z,90.03
2018-03-07T05:26:19.488Z,67.37
2018-03-07T05:28:45.613Z,74.20
2018-03-07T05:31:11.950Z,71.60
2018-03-07T05:33:38.143Z,76.50
2018-03-07T05:36:04.303Z,71.53
2018-03-07T05:38:30.613Z,70.97
2018-03-07T05:40:57.560Z,71.50
2018-03-07T05:43:23.709Z,73.50
2018-03-07T05:45:50.039Z,65.03
2018-03-07T05:48:16.261Z,65.83
2018-03-07T05:50:42.606Z,81.53
2018-03-07T05:53:08.924Z,65.57
2018-03-07T05:55:35.220Z,67.70
2018-03-07T05:58:02.164Z,66.33
2018-03-07T06:00:28.462Z,58.90
2018-03-07T06:02:54.637Z,69.57
2018-03-07T06:05:20.813Z,70.77
2018-03-07T06:07:46.966Z,75.93
2018-03-07T06:10:13.226Z,71.13
2018-03-07T06:12:40.131Z,70.93
2018-03-07T06:15:06.380Z,74.53
2018-03-07T06:17:32.556Z,81.80
2018-03-07T06:19:58.766Z,72.40
2018-03-07T06:22:24.896Z,75.00
2018-03-07T06:24:51.114Z,79.17
2018-03-07T06:27:17.327Z,70.97
2018-03-07T06:29:43.451Z,82.00
2018-03-07T06:32:10.439Z,81.67
2018-03-07T06:34:36.653Z,80.80
2018-03-07T06:37:03.551Z,82.67
2018-03-07T06:39:29.782Z,84.33
2018-03-07T06:41:56.513Z,80.20
2018-03-07T06:44:23.004Z,85.00
2018-03-07T06:46:49.218Z,73.63
2018-03-07T06:49:15.821Z,101.70
2018-03-07T06:51:42.261Z,75.70
2018-03-07T06:54:08.507Z,81.63
2018-03-07T06:56:34.733Z,79.77
2018-03-07T06:59:00.938Z,87.07
2018-03-07T07:01:27.224Z,78.60
2018-03-07T07:03:53.421Z,71.53
2018-03-07T07:06:19.604Z,71.70
2018-03-07T07:08:45.740Z,79.33
2018-03-07T07:11:11.944Z,81.23
2018-03-07T07:13:38.083Z,68.27
2018-03-07T07:16:04.289Z,72.93
2018-03-07T07:18:31.124Z,62.47
2018-03-07T07:20:57.297Z,66.80
2018-03-07T07:23:24.167Z,70.97
2018-03-07T07:25:50.325Z,58.60
2018-03-07T07:28:16.715Z,70.70
2018-03-07T07:30:42.872Z,64.87
2018-03-07T07:33:09.027Z,68.13
2018-03-07T07:35:35.976Z,66.07
2018-03-07T07:38:02.186Z,65.10
2018-03-07T07:40:28.300Z,64.73
2018-03-07T07:42:54.526Z,64.40
2018-03-07T07:45:20.856Z,63.40
2018-03-07T07:47:47.247Z,62.83
2018-03-07T07:50:13.472Z,54.40
2018-03-07T07:52:39.628Z,55.60
2018-03-07T07:55:05.781Z,49.80
2018-03-07T07:57:32.684Z,54.23
2018-03-07T07:59:58.816Z,54.80
2018-03-07T08:02:24.987Z,52.73
2018-03-07T08:04:51.173Z,50.53
2018-03-07T08:07:17.352Z,46.87
2018-03-07T08:09:43.548Z,49.00
2018-03-07T08:12:10.458Z,46.53
2018-03-07T08:14:36.694Z,41.13
2018-03-07T08:17:02.943Z,50.53
2018-03-07T08:19:29.605Z,49.27
2018-03-07T08:21:56.332Z,39.53
2018-03-07T08:24:22.841Z,43.33
2018-03-07T08:26:49.067Z,42.63
2018-03-07T08:29:19.398Z,49.03
2018-03-07T08:31:45.678Z,44.70
2018-03-07T08:34:11.833Z,37.53
2018-03-07T08:36:38.018Z,44.33
2018-03-07T08:39:04.267Z,41.60
2018-03-07T08:41:30.376Z,43.33
2018-03-07T08:43:56.556Z,45.70
2018-03-07T08:46:23.532Z,44.20
2018-03-07T08:48:49.745Z,41.50
2018-03-07T08:51:15.878Z,36.50
2018-03-07T08:53:42.099Z,40.57
2018-03-07T08:56:08.271Z,42.53
2018-03-07T08:58:35.223Z,38.00
2018-03-07T09:01:01.395Z,36.60
2018-03-07T09:03:27.668Z,36.17
2018-03-07T09:05:53.796Z,37.83
2018-03-07T09:08:19.933Z,35.40
2018-03-07T09:10:46.095Z,35.43
2018-03-07T09:13:12.224Z,32.90
2018-03-07T09:15:38.504Z,36.03
2018-03-07T09:18:04.642Z,37.97
2018-03-07T09:20:34.190Z,41.00
2018-03-07T09:23:00.348Z,37.10
2018-03-07T09:25:26.754Z,38.27
2018-03-07T09:27:52.990Z,35.13
2018-03-07T09:30:19.119Z,34.20
2018-03-07T09:32:45.304Z,39.67
2018-03-07T09:35:11.452Z,39.73
2018-03-07T09:37:37.623Z,40.20
2018-03-07T09:40:03.811Z,34.13
2018-03-07T09:42:30.719Z,42.20
2018-03-07T09:44:56.840Z,33.33
2018-03-07T09:47:23.037Z,44.13
2018-03-07T09:49:49.229Z,40.33
2018-03-07T09:52:15.350Z,48.53
2018-03-07T09:54:41.446Z,36.10
2018-03-07T09:57:08.327Z,36.97
2018-03-07T09:59:35.811Z,36.33
2018-03-07T10:02:02.036Z,50.37
2018-03-07T10:04:28.128Z,40.10
2018-03-07T10:06:54.948Z,48.30
2018-03-07T10:09:21.107Z,50.50
2018-03-07T10:11:47.367Z,41.10
2018-03-07T10:14:13.586Z,43.23
2018-03-07T10:19:19.149Z,43.77
2018-03-07T10:21:45.255Z,45.97
2018-03-07T10:24:11.402Z,46.77
2018-03-07T10:26:38.366Z,44.33
2018-03-07T10:29:04.460Z,46.10
2018-03-07T10:31:30.611Z,56.83
2018-03-07T10:33:57.544Z,56.17
2018-03-07T10:36:23.910Z,63.90
2018-03-07T10:38:50.067Z,76.23
2018-03-07T10:41:16.245Z,55.97
2018-03-07T10:43:42.395Z,60.33
2018-03-07T10:46:08.524Z,55.23
2018-03-07T10:48:34.680Z,48.67
2018-03-07T10:51:00.775Z,48.20
2018-03-07T10:53:27.135Z,48.13
2018-03-07T10:55:53.307Z,43.73
2018-03-07T10:58:19.458Z,50.23
2018-03-07T11:00:45.588Z,47.73
2018-03-07T11:03:11.804Z,42.33
2018-03-07T11:05:37.952Z,46.33
2018-03-07T11:08:04.173Z,42.37
2018-03-07T11:10:30.355Z,53.10
2018-03-07T11:12:56.556Z,51.30
2018-03-07T11:15:22.805Z,41.40
2018-03-07T11:17:48.972Z,43.40
2018-03-07T11:20:15.112Z,41.10
2018-03-07T11:22:41.224Z,40.80
2018-03-07T11:25:07.355Z,40.00
2018-03-07T11:27:33.482Z,39.87
2018-03-07T11:30:00.323Z,55.57
2018-03-07T11:32:26.418Z,53.73
2018-03-07T11:34:52.525Z,54.57
2018-03-07T11:37:18.627Z,47.93
2018-03-07T11:39:44.762Z,34.17
2018-03-07T11:42:16.918Z,54.07
2018-03-07T11:44:43.107Z,43.93
2018-03-07T11:47:10.145Z,38.67
2018-03-07T11:49:37.153Z,54.47
2018-03-07T11:52:03.462Z,44.03
2018-03-07T11:54:29.682Z,40.80
2018-03-07T11:56:56.073Z,36.90
2018-03-07T11:59:22.333Z,37.40
2018-03-07T12:01:48.912Z,31.10
2018-03-07T12:04:15.165Z,35.43
2018-03-07T12:06:41.313Z,36.47
2018-03-07T12:09:07.585Z,34.43
2018-03-07T12:11:33.737Z,32.20
2018-03-07T12:13:59.963Z,29.97
2018-03-07T12:16:26.418Z,28.70
2018-03-07T12:18:52.719Z,26.03
2018-03-07T12:21:19.700Z,26.70
2018-03-07T12:23:47.028Z,39.87
2018-03-07T12:26:13.322Z,32.13
2018-03-07T12:28:39.577Z,31.40
2018-03-07T12:31:05.703Z,14.77
2018-03-07T12:33:32.387Z,14.10
2018-03-07T12:35:58.517Z,10.50
2018-03-07T12:38:25.677Z,7.60
2018-03-07T12:40:51.852Z,10.10
2018-03-07T12:43:18.025Z,7.30
2018-03-07T12:45:44.889Z,11.20
2018-03-07T12:48:11.118Z,7.03
2018-03-07T12:50:38.175Z,9.43
2018-03-07T12:53:04.317Z,9.50
2018-03-07T12:55:30.477Z,7.20
2018-03-07T12:57:56.645Z,7.67
2018-03-07T13:00:23.627Z,10.00
2018-03-07T13:02:49.776Z,7.43
2018-03-07T13:05:15.900Z,8.87
2018-03-07T13:07:42.194Z,7.40
2018-03-07T13:10:08.316Z,8.63
2018-03-07T13:12:34.576Z,6.93
2018-03-07T13:15:00.723Z,8.43
2018-03-07T13:17:26.872Z,7.57
2018-03-07T13:19:53.154Z,7.27
2018-03-07T13:22:19.440Z,6.00
2018-03-07T13:24:45.566Z,8.93
2018-03-07T13:27:11.703Z,7.20
2018-03-07T13:29:37.812Z,6.37
2018-03-07T13:32:03.956Z,10.70
2018-03-07T13:34:30.059Z,11.60
2018-03-07T13:36:56.152Z,6.83
2018-03-07T13:39:23.000Z,5.40
2018-03-07T13:41:49.227Z,6.43
2018-03-07T13:44:16.075Z,5.43
2018-03-07T13:46:42.489Z,11.40
2018-03-07T13:49:11.876Z,7.60
2018-03-07T13:51:38.192Z,7.20
2018-03-07T13:54:04.572Z,6.10
2018-03-07T13:56:32.629Z,10.33
2018-03-07T13:58:58.995Z,7.13
2018-03-07T14:01:25.139Z,17.20
2018-03-07T14:03:51.259Z,7.00
2018-03-07T14:06:17.654Z,24.37
2018-03-07T14:20:55.297Z,8.03
2018-03-07T14:23:21.673Z,8.13
2018-03-07T14:25:47.829Z,9.40
2018-03-07T14:28:13.971Z,16.33
2018-03-07T14:30:45.507Z,7.33
2018-03-07T14:33:11.784Z,6.00
2018-03-07T14:35:37.968Z,6.60
2018-03-07T14:38:04.184Z,3.90
2018-03-07T14:40:30.376Z,12.87
2018-03-07T14:42:56.469Z,11.40
2018-03-07T14:45:22.590Z,15.10
2018-03-07T14:47:48.738Z,7.50
2018-03-07T14:50:14.987Z,6.27
2018-03-07T14:52:41.173Z,5.97
2018-03-07T14:55:07.391Z,7.20
2018-03-07T14:57:33.642Z,6.50
2018-03-07T14:59:59.851Z,10.73
2018-03-07T15:02:26.815Z,3.10
2018-03-07T15:04:53.189Z,5.47
2018-03-07T15:07:19.455Z,8.13
2018-03-07T15:09:45.874Z,7.40
2018-03-07T15:12:12.298Z,11.23
2018-03-07T15:14:38.485Z,5.77
2018-03-07T15:17:05.462Z,8.67
2018-03-07T15:19:42.280Z,25.53
2018-03-07T15:22:08.580Z,3.80
2018-03-07T15:24:35.562Z,5.10
2018-03-07T15:27:01.692Z,9.27
2018-03-07T15:29:31.178Z,3.17
2018-03-07T15:31:57.438Z,5.23
2018-03-07T15:34:23.738Z,11.20
2018-03-07T15:36:50.010Z,7.60
2018-03-07T15:39:16.172Z,2.47
2018-03-07T15:41:42.377Z,4.20
2018-03-07T15:44:08.549Z,2.50
2018-03-07T15:46:35.840Z,2.70
2018-03-07T15:49:06.565Z,10.83
2018-03-07T20:32:34.647Z,23.03
2018-03-07T20:35:00.926Z,14.57
2018-03-07T20:37:27.112Z,21.23
2018-03-07T20:39:58.345Z,21.57
2018-03-07T20:42:24.688Z,33.53
2018-03-07T20:44:50.970Z,29.17
2018-03-07T20:47:17.285Z,23.70
2018-03-07T20:49:43.443Z,30.67
2018-03-07T20:52:09.691Z,31.07
2018-03-07T20:54:36.343Z,38.80
2018-03-07T20:57:02.522Z,32.10
2018-03-07T21:02:06.032Z,36.33
2018-03-07T21:04:32.897Z,25.53
2018-03-07T21:06:59.148Z,28.53
2018-03-07T21:09:31.807Z,28.60
2018-03-07T21:11:58.021Z,38.73
2018-03-07T21:14:24.930Z,32.43
2018-03-07T21:16:51.172Z,30.03
2018-03-07T21:19:17.330Z,30.67
2018-03-07T21:21:43.613Z,21.90
2018-03-07T21:24:09.849Z,25.70
2018-03-07T21:26:36.029Z,25.83
2018-03-07T21:29:02.213Z,24.90
2018-03-07T21:31:30.928Z,26.27
2018-03-07T21:33:57.095Z,16.47
2018-03-07T21:36:23.686Z,18.33
2018-03-07T21:38:50.740Z,22.40
2018-03-07T21:41:20.981Z,14.50
2018-03-07T21:43:47.105Z,20.23
2018-03-07T21:46:13.308Z,44.80
2018-03-07T21:48:39.634Z,21.93
2018-03-07T21:51:05.778Z,25.20
2018-03-07T21:53:32.635Z,38.73
2018-03-07T21:55:58.785Z,30.00
2018-03-07T21:58:25.584Z,25.93
2018-03-07T22:00:51.720Z,36.70
2018-03-07T22:03:17.849Z,36.10
2018-03-07T22:05:44.012Z,37.53
2018-03-07T22:08:12.780Z,32.73
2018-03-07T22:10:42.248Z,47.90
2018-03-07T22:13:11.193Z,33.27
2018-03-07T22:15:43.217Z,38.37
2018-03-07T22:18:10.218Z,51.40
2018-03-07T22:20:36.448Z,40.90
2018-03-07T22:23:02.903Z,34.17
2018-03-07T22:25:35.383Z,42.87
2018-03-07T22:28:03.776Z,43.50
2018-03-07T22:30:30.116Z,49.80
2018-03-07T22:32:56.314Z,40.30
2018-03-07T22:35:22.496Z,48.23
2018-03-07T22:37:48.768Z,53.77
2018-03-07T22:40:14.908Z,61.20
2018-03-07T22:42:41.017Z,60.00
2018-03-07T22:45:07.148Z,63.10
2018-03-07T22:47:34.010Z,66.57
2018-03-07T22:50:00.128Z,69.27
2018-03-07T22:52:26.973Z,71.57
2018-03-07T22:54:55.279Z,71.83
2018-03-07T22:57:21.493Z,74.17
2018-03-07T22:59:47.770Z,71.33
2018-03-07T23:02:13.921Z,76.30
2018-03-07T23:04:40.100Z,81.07
2018-03-07T23:07:06.483Z,82.73
2018-03-07T23:09:33.806Z,90.00
2018-03-07T23:12:00.052Z,94.97
2018-03-07T23:14:26.198Z,96.10
2018-03-07T23:16:52.437Z,94.73
2018-03-07T23:19:18.591Z,84.20
2018-03-07T23:21:44.740Z,84.80
2018-03-07T23:24:11.228Z,80.80
2018-03-07T23:26:38.153Z,86.30
2018-03-07T23:29:05.563Z,80.67
2018-03-07T23:31:33.283Z,84.40
2018-03-07T23:46:14.674Z,84.97
2018-03-07T23:48:40.883Z,85.93
2018-03-07T23:51:07.813Z,83.43
2018-03-07T23:53:34.018Z,75.07
2018-03-07T23:56:00.791Z,91.57
2018-03-07T23:58:26.971Z,75.67
